createdAt,value
2022-07-31T00:01:39.383Z,99.90
2022-07-31T00:06:04.656Z,99.90
2022-07-31T00:10:31.830Z,99.90
2022-07-31T00:14:57.138Z,99.90
2022-07-31T00:19:22.436Z,99.90
2022-07-31T00:23:47.667Z,99.90
2022-07-31T00:28:12.981Z,99.90
2022-07-31T00:32:38.268Z,99.90
2022-07-31T00:37:03.676Z,99.90
2022-07-31T00:41:45.769Z,99.90
2022-07-31T00:46:14.474Z,99.90
2022-07-31T00:50:40.031Z,99.90
2022-07-31T00:55:05.902Z,99.90
2022-07-31T00:59:31.940Z,99.90
2022-07-31T01:03:57.692Z,99.90
2022-07-31T01:08:23.664Z,99.90
2022-07-31T01:12:57.448Z,99.90
2022-07-31T01:17:23.665Z,99.90
2022-07-31T01:22:33.447Z,99.90
2022-07-31T01:27:11.215Z,99.90
2022-07-31T01:31:53.772Z,99.90
2022-07-31T01:36:24.838Z,99.90
2022-07-31T01:41:03.351Z,99.90
2022-07-31T01:45:30.914Z,99.90
2022-07-31T01:49:58.773Z,99.90
2022-07-31T01:54:25.220Z,99.90
2022-07-31T01:58:52.380Z,99.90
2022-07-31T02:03:17.994Z,99.90
2022-07-31T02:08:06.656Z,99.90
2022-07-31T02:12:34.088Z,99.90
2022-07-31T02:17:00.407Z,99.90
2022-07-31T02:21:26.528Z,99.90
2022-07-31T02:25:52.194Z,99.90
2022-07-31T02:30:17.682Z,99.90
2022-07-31T02:34:44.962Z,99.90
2022-07-31T02:39:11.333Z,99.90
2022-07-31T02:43:37.671Z,99.90
2022-07-31T02:48:03.350Z,99.90
2022-07-31T02:52:29.918Z,99.90
2022-07-31T02:56:56.376Z,99.90
2022-07-31T03:01:21.905Z,99.90
2022-07-31T03:05:47.174Z,99.90
2022-07-31T03:10:13.182Z,99.90
2022-07-31T03:14:39.431Z,99.90
2022-07-31T03:19:06.241Z,99.90
2022-07-31T03:23:36.547Z,99.90
2022-07-31T03:28:02.026Z,99.90
2022-07-31T03:32:27.296Z,99.90
2022-07-31T03:36:52.523Z,99.90
2022-07-31T03:41:17.943Z,99.90
2022-07-31T03:45:45.483Z,99.90
2022-07-31T03:50:12.386Z,99.90
2022-07-31T03:54:37.716Z,99.90
2022-07-31T03:59:04.175Z,99.90
2022-07-31T04:03:32.313Z,99.90
2022-07-31T04:07:59.384Z,99.90
2022-07-31T04:12:25.056Z,99.90
2022-07-31T04:16:50.314Z,99.90
2022-07-31T04:21:15.710Z,99.90
2022-07-31T04:25:40.961Z,99.90
2022-07-31T04:30:08.588Z,99.90
2022-07-31T04:34:33.963Z,99.90
2022-07-31T04:39:00.575Z,99.90
2022-07-31T04:43:25.780Z,99.90
2022-07-31T04:47:51.023Z,99.90
2022-07-31T04:52:16.502Z,99.90
2022-07-31T04:56:44.377Z,99.90
2022-07-31T05:01:09.697Z,99.90
2022-07-31T05:05:35.800Z,99.90
2022-07-31T05:10:01.035Z,99.90
2022-07-31T05:14:26.392Z,99.90
2022-07-31T05:18:52.791Z,99.90
2022-07-31T05:23:18.028Z,99.90
2022-07-31T05:27:43.273Z,99.90
2022-07-31T05:32:09.103Z,99.90
2022-07-31T05:36:34.418Z,99.90
2022-07-31T05:40:59.802Z,99.90
2022-07-31T05:45:25.184Z,99.90
2022-07-31T05:49:50.391Z,99.90
2022-07-31T05:54:15.634Z,99.90
2022-07-31T05:58:40.863Z,99.90
2022-07-31T06:03:06.519Z,99.90
2022-07-31T06:07:32.019Z,99.90
2022-07-31T06:11:58.974Z,99.90
2022-07-31T06:16:24.217Z,99.90
2022-07-31T06:20:49.568Z,99.90
2022-07-31T06:25:14.941Z,99.90
2022-07-31T06:29:41.572Z,99.90
2022-07-31T06:34:07.495Z,99.90
2022-07-31T06:38:32.778Z,99.90
2022-07-31T06:42:58.252Z,99.90
2022-07-31T06:47:25.621Z,99.90
2022-07-31T06:51:50.914Z,99.90
2022-07-31T06:56:16.131Z,99.90
2022-07-31T07:00:41.447Z,99.90
2022-07-31T07:05:07.232Z,99.90
2022-07-31T07:09:32.638Z,99.90
2022-07-31T07:13:57.923Z,99.90
2022-07-31T07:18:23.254Z,99.90
2022-07-31T07:22:48.654Z,99.90
2022-07-31T07:27:13.961Z,99.90
2022-07-31T07:31:39.558Z,99.90
2022-07-31T07:36:05.332Z,99.90
2022-07-31T07:40:31.229Z,99.90
2022-07-31T07:44:57.426Z,99.90
2022-07-31T07:49:23.447Z,99.90
2022-07-31T07:53:49.035Z,99.90
2022-07-31T07:58:14.496Z,99.90
2022-07-31T08:02:41.229Z,99.90
2022-07-31T08:07:06.921Z,99.90
2022-07-31T08:11:32.153Z,99.90
2022-07-31T08:15:57.428Z,99.90
2022-07-31T08:20:22.790Z,99.90
2022-07-31T08:24:48.074Z,99.90
2022-07-31T08:29:13.318Z,99.90
2022-07-31T08:33:40.255Z,99.90
2022-07-31T08:38:05.591Z,99.90
2022-07-31T08:42:32.395Z,99.90
2022-07-31T08:46:58.472Z,99.90
2022-07-31T08:51:24.383Z,99.90
2022-07-31T08:55:56.502Z,99.90
2022-07-31T09:00:23.056Z,99.90
2022-07-31T09:04:52.223Z,99.90
2022-07-31T09:09:18.662Z,99.90
2022-07-31T09:14:14.213Z,99.90
2022-07-31T09:18:39.571Z,99.90
2022-07-31T09:23:07.919Z,99.90
2022-07-31T09:27:33.277Z,99.90
2022-07-31T09:32:18.901Z,99.90
2022-07-31T09:36:44.196Z,99.90
2022-07-31T09:41:56.770Z,99.90
2022-07-31T09:46:06.791Z,99.90
2022-07-31T09:50:32.223Z,99.90
2022-07-31T09:55:16.211Z,99.90
2022-07-31T09:59:41.966Z,99.90
2022-07-31T10:04:07.461Z,99.90
2022-07-31T10:08:37.496Z,99.90
2022-07-31T10:13:08.498Z,99.90
2022-07-31T10:17:39.732Z,99.90
2022-07-31T10:22:06.798Z,99.90
2022-07-31T10:26:57.878Z,99.90
2022-07-31T10:31:18.562Z,99.90
2022-07-31T10:36:01.673Z,99.90
2022-07-31T10:40:31.044Z,99.90
2022-07-31T10:45:07.813Z,99.90
2022-07-31T10:49:41.403Z,99.90
2022-07-31T10:54:06.879Z,99.90
2022-07-31T10:58:32.127Z,99.90
2022-07-31T11:02:57.723Z,99.90
2022-07-31T11:07:23.111Z,99.90
2022-07-31T11:11:48.888Z,99.90
2022-07-31T11:16:14.907Z,99.90
2022-07-31T11:20:41.024Z,99.90
2022-07-31T11:25:06.763Z,99.90
2022-07-31T11:29:58.736Z,99.90
2022-07-31T11:34:23.267Z,99.90
2022-07-31T11:38:51.651Z,99.90
2022-07-31T11:43:25.962Z,99.60
2022-07-31T11:48:12.432Z,99.90
2022-07-31T11:52:37.939Z,99.90
2022-07-31T11:57:05.561Z,99.90
2022-07-31T12:01:31.041Z,99.90
2022-07-31T12:05:57.097Z,99.90
2022-07-31T12:10:22.828Z,99.90
2022-07-31T12:14:48.111Z,99.90
2022-07-31T12:19:14.313Z,98.70
2022-07-31T12:23:50.250Z,98.80
2022-07-31T12:28:16.492Z,98.20
2022-07-31T12:32:41.758Z,98.30
2022-07-31T12:37:14.622Z,97.00
2022-07-31T12:41:43.331Z,96.40
2022-07-31T12:46:08.607Z,96.60
2022-07-31T12:50:34.495Z,96.40
2022-07-31T12:54:59.801Z,96.70
2022-07-31T12:59:25.195Z,95.60
2022-07-31T13:03:51.075Z,96.30
2022-07-31T13:08:16.444Z,94.80
2022-07-31T13:12:42.199Z,94.60
2022-07-31T13:17:07.854Z,95.50
2022-07-31T13:21:48.031Z,95.60
2022-07-31T13:26:14.138Z,94.50
2022-07-31T13:30:39.468Z,94.10
2022-07-31T13:35:23.898Z,92.50
2022-07-31T13:39:51.706Z,93.30
2022-07-31T13:44:17.038Z,92.80
2022-07-31T13:48:42.279Z,91.80
2022-07-31T13:53:08.351Z,92.00
2022-07-31T13:57:33.678Z,91.80
2022-07-31T14:02:13.599Z,92.50
2022-07-31T14:06:39.125Z,92.80
2022-07-31T14:11:04.786Z,92.30
2022-07-31T14:15:39.825Z,91.40
2022-07-31T14:20:06.033Z,92.20
2022-07-31T14:24:31.337Z,92.60
2022-07-31T14:28:57.542Z,91.70
2022-07-31T14:33:22.927Z,90.90
2022-07-31T14:37:48.478Z,90.60
2022-07-31T14:42:13.781Z,90.80
2022-07-31T14:46:39.089Z,90.80
2022-07-31T14:51:04.414Z,90.70
2022-07-31T14:55:30.023Z,91.00
2022-07-31T14:59:55.375Z,91.00
2022-07-31T15:04:20.891Z,91.50
2022-07-31T15:08:46.170Z,92.20
2022-07-31T15:13:11.488Z,91.20
2022-07-31T15:17:36.823Z,92.00
2022-07-31T15:22:11.050Z,91.90
2022-07-31T15:26:42.150Z,92.70
2022-07-31T15:31:07.456Z,92.10
2022-07-31T15:35:32.813Z,92.60
2022-07-31T15:40:02.328Z,92.60
2022-07-31T15:44:29.035Z,92.00
2022-07-31T15:48:54.685Z,93.40
2022-07-31T15:53:20.011Z,92.80
2022-07-31T15:57:45.335Z,93.10
2022-07-31T16:02:10.594Z,94.20
2022-07-31T16:06:35.936Z,95.20
2022-07-31T16:11:02.290Z,96.50
2022-07-31T16:15:27.686Z,97.40
2022-07-31T16:19:53.285Z,98.20
2022-07-31T16:24:20.212Z,98.70
2022-07-31T16:28:45.608Z,99.50
2022-07-31T16:33:10.929Z,99.90
2022-07-31T16:37:52.592Z,99.90
2022-07-31T16:42:18.490Z,99.90
2022-07-31T16:46:44.001Z,99.90
2022-07-31T16:51:09.323Z,99.90
2022-07-31T16:55:46.271Z,99.90
2022-07-31T17:00:19.959Z,99.90
2022-07-31T17:04:45.305Z,99.90
2022-07-31T17:09:16.930Z,99.90
2022-07-31T17:13:43.379Z,99.90
2022-07-31T17:18:08.790Z,99.90
2022-07-31T17:22:37.889Z,99.90
2022-07-31T17:27:07.078Z,99.90
2022-07-31T17:31:32.881Z,99.90
2022-07-31T17:35:58.366Z,99.90
2022-07-31T17:40:42.588Z,99.90
2022-07-31T17:45:09.398Z,99.90
2022-07-31T17:49:34.919Z,99.90
2022-07-31T17:54:00.820Z,99.90
2022-07-31T17:58:26.242Z,99.90
2022-07-31T18:02:51.508Z,99.90
2022-07-31T18:07:17.940Z,99.90
2022-07-31T18:11:43.254Z,99.90
2022-07-31T18:16:08.520Z,99.90
2022-07-31T18:20:33.984Z,99.90
2022-07-31T18:24:59.362Z,99.90
2022-07-31T18:29:24.696Z,99.90
2022-07-31T18:33:50.060Z,99.90
2022-07-31T18:38:15.637Z,99.90
2022-07-31T18:42:40.899Z,99.90
2022-07-31T18:47:06.224Z,99.90
2022-07-31T18:51:31.509Z,99.90
2022-07-31T18:55:56.865Z,99.90
2022-07-31T19:00:22.188Z,99.90
2022-07-31T19:04:48.292Z,99.90
2022-07-31T19:09:13.552Z,99.90
2022-07-31T19:13:38.847Z,99.90
2022-07-31T19:18:04.915Z,99.90
2022-07-31T19:22:32.530Z,99.90
2022-07-31T19:26:57.812Z,99.90
2022-07-31T19:31:24.055Z,99.90
2022-07-31T19:35:55.294Z,99.90
2022-07-31T19:40:25.458Z,99.90
2022-07-31T19:44:50.716Z,99.90
2022-07-31T19:49:16.029Z,99.90
2022-07-31T19:53:42.265Z,99.90
2022-07-31T19:58:07.699Z,99.90
2022-07-31T20:02:33.035Z,99.90
2022-07-31T20:06:58.388Z,99.90
2022-07-31T20:11:23.725Z,99.90
2022-07-31T20:15:52.313Z,99.90
2022-07-31T20:20:18.263Z,99.90
2022-07-31T20:24:43.603Z,99.90
2022-07-31T20:29:08.936Z,99.90
2022-07-31T20:33:34.563Z,99.90
2022-07-31T20:38:00.687Z,99.90
2022-07-31T20:42:26.005Z,99.90
2022-07-31T20:46:51.290Z,99.90
2022-07-31T20:51:21.899Z,99.90
2022-07-31T20:55:50.052Z,99.90
2022-07-31T21:00:15.856Z,99.90
2022-07-31T21:04:41.105Z,99.90
2022-07-31T21:09:07.064Z,99.90
2022-07-31T21:13:32.364Z,99.90
2022-07-31T21:17:57.837Z,99.90
2022-07-31T21:22:23.281Z,99.90
2022-07-31T21:26:51.839Z,99.90
2022-07-31T21:31:19.196Z,99.90
2022-07-31T21:35:45.260Z,99.90
2022-07-31T21:40:11.663Z,99.90
2022-07-31T21:44:37.486Z,99.90
2022-07-31T21:49:04.185Z,99.90
2022-07-31T21:53:29.690Z,99.90
2022-07-31T21:57:58.804Z,99.90
2022-07-31T22:02:25.325Z,99.90
2022-07-31T22:07:08.964Z,99.90
2022-07-31T22:11:35.396Z,99.90
2022-07-31T22:16:01.342Z,99.90
2022-07-31T22:20:26.839Z,99.90
2022-07-31T22:24:53.421Z,99.90
2022-07-31T22:29:18.737Z,99.90
2022-07-31T22:33:44.322Z,99.90
2022-07-31T22:38:11.563Z,99.90
2022-07-31T22:42:37.291Z,99.90
2022-07-31T22:47:02.657Z,99.90
2022-07-31T22:51:27.984Z,99.90
2022-07-31T22:55:54.212Z,99.90
2022-07-31T23:00:19.717Z,99.90
2022-07-31T23:04:45.539Z,99.90
2022-07-31T23:09:10.785Z,99.90
2022-07-31T23:13:36.013Z,99.90
2022-07-31T23:18:02.014Z,99.90
2022-07-31T23:22:33.448Z,99.90
2022-07-31T23:26:59.510Z,99.90
2022-07-31T23:31:25.495Z,99.90
2022-07-31T23:35:50.719Z,99.90
2022-07-31T23:40:16.029Z,99.90
2022-07-31T23:44:41.307Z,99.90
2022-07-31T23:49:11.512Z,99.90
2022-07-31T23:53:36.823Z,99.90
2022-07-31T23:58:02.221Z,99.90
